sensor_id;sensor_type;location;lat;lon;timestamp;temperature;humidity
57624;SHT30;43448;52.264;20.644;2024-03-08T00:00:01;24.44;28.67
57624;SHT30;43448;52.264;20.644;2024-03-08T00:10:00;24.40;28.62
57624;SHT30;43448;52.264;20.644;2024-03-08T00:20:00;24.35;28.59
57624;SHT30;43448;52.264;20.644;2024-03-08T00:30:01;24.35;28.52
57624;SHT30;43448;52.264;20.644;2024-03-08T00:40:00;24.32;28.59
57624;SHT30;43448;52.264;20.644;2024-03-08T00:50:00;24.29;28.67
57624;SHT30;43448;52.264;20.644;2024-03-08T01:00:03;24.28;28.97
57624;SHT30;43448;52.264;20.644;2024-03-08T01:10:01;24.33;28.45
57624;SHT30;43448;52.264;20.644;2024-03-08T01:20:00;24.33;28.43
57624;SHT30;43448;52.264;20.644;2024-03-08T01:30:00;24.30;28.35
57624;SHT30;43448;52.264;20.644;2024-03-08T01:40:00;24.29;28.35
57624;SHT30;43448;52.264;20.644;2024-03-08T01:50:01;24.22;28.85
57624;SHT30;43448;52.264;20.644;2024-03-08T02:00:01;24.22;29.06
57624;SHT30;43448;52.264;20.644;2024-03-08T02:10:00;24.25;29.39
57624;SHT30;43448;52.264;20.644;2024-03-08T02:20:00;24.25;29.05
57624;SHT30;43448;52.264;20.644;2024-03-08T02:30:00;24.18;29.12
57624;SHT30;43448;52.264;20.644;2024-03-08T02:40:00;24.16;29.61
57624;SHT30;43448;52.264;20.644;2024-03-08T02:50:00;24.22;28.92
57624;SHT30;43448;52.264;20.644;2024-03-08T03:00:00;24.19;28.77
57624;SHT30;43448;52.264;20.644;2024-03-08T03:10:01;24.16;29.31
57624;SHT30;43448;52.264;20.644;2024-03-08T03:20:00;24.20;28.98
57624;SHT30;43448;52.264;20.644;2024-03-08T03:30:00;24.16;29.43
57624;SHT30;43448;52.264;20.644;2024-03-08T03:40:00;24.18;28.85
57624;SHT30;43448;52.264;20.644;2024-03-08T03:50:00;24.19;28.96
57624;SHT30;43448;52.264;20.644;2024-03-08T04:00:00;24.07;29.06
57624;SHT30;43448;52.264;20.644;2024-03-08T04:10:00;24.05;29.08
57624;SHT30;43448;52.264;20.644;2024-03-08T04:20:00;23.95;29.38
57624;SHT30;43448;52.264;20.644;2024-03-08T04:30:00;24.02;29.45
57624;SHT30;43448;52.264;20.644;2024-03-08T04:40:00;24.04;29.44
57624;SHT30;43448;52.264;20.644;2024-03-08T04:50:00;23.98;28.68
57624;SHT30;43448;52.264;20.644;2024-03-08T05:00:01;23.95;29.70
57624;SHT30;43448;52.264;20.644;2024-03-08T05:10:01;23.99;29.74
57624;SHT30;43448;52.264;20.644;2024-03-08T05:20:00;24.02;30.12
57624;SHT30;43448;52.264;20.644;2024-03-08T05:30:01;24.01;29.99
57624;SHT30;43448;52.264;20.644;2024-03-08T05:40:00;24.04;29.97
57624;SHT30;43448;52.264;20.644;2024-03-08T05:50:01;24.05;30.40
57624;SHT30;43448;52.264;20.644;2024-03-08T06:00:00;24.07;30.32
57624;SHT30;43448;52.264;20.644;2024-03-08T06:10:00;24.08;30.19
57624;SHT30;43448;52.264;20.644;2024-03-08T06:20:00;24.08;29.96
57624;SHT30;43448;52.264;20.644;2024-03-08T06:30:01;24.08;29.70
57624;SHT30;43448;52.264;20.644;2024-03-08T06:40:01;24.08;29.50
57624;SHT30;43448;52.264;20.644;2024-03-08T06:50:00;24.07;29.19
57624;SHT30;43448;52.264;20.644;2024-03-08T07:00:01;24.08;28.95
57624;SHT30;43448;52.264;20.644;2024-03-08T07:10:00;24.08;28.67
57624;SHT30;43448;52.264;20.644;2024-03-08T07:20:00;24.12;28.56
57624;SHT30;43448;52.264;20.644;2024-03-08T07:30:00;24.09;28.53
57624;SHT30;43448;52.264;20.644;2024-03-08T07:40:00;24.13;28.56
57624;SHT30;43448;52.264;20.644;2024-03-08T07:50:01;24.12;28.50
57624;SHT30;43448;52.264;20.644;2024-03-08T08:00:01;24.12;28.50
57624;SHT30;43448;52.264;20.644;2024-03-08T08:10:00;24.18;28.49
57624;SHT30;43448;52.264;20.644;2024-03-08T08:20:00;24.16;28.44
57624;SHT30;43448;52.264;20.644;2024-03-08T08:30:00;24.25;28.45
57624;SHT30;43448;52.264;20.644;2024-03-08T08:40:00;24.25;28.41
57624;SHT30;43448;52.264;20.644;2024-03-08T08:50:01;24.29;28.48
57624;SHT30;43448;52.264;20.644;2024-03-08T09:00:01;24.33;28.47
57624;SHT30;43448;52.264;20.644;2024-03-08T09:10:01;24.38;28.39
57624;SHT30;43448;52.264;20.644;2024-03-08T09:20:00;24.39;28.41
57624;SHT30;43448;52.264;20.644;2024-03-08T09:30:00;24.42;28.28
57624;SHT30;43448;52.264;20.644;2024-03-08T09:40:00;24.44;28.32
57624;SHT30;43448;52.264;20.644;2024-03-08T09:50:00;24.49;28.16
57624;SHT30;43448;52.264;20.644;2024-03-08T10:00:00;24.52;28.10
57624;SHT30;43448;52.264;20.644;2024-03-08T10:10:00;24.55;28.14
57624;SHT30;43448;52.264;20.644;2024-03-08T10:20:00;24.56;28.06
57624;SHT30;43448;52.264;20.644;2024-03-08T10:30:00;24.59;27.89
57624;SHT30;43448;52.264;20.644;2024-03-08T10:40:03;24.62;27.89
57624;SHT30;43448;52.264;20.644;2024-03-08T10:50:08;24.67;27.73
57624;SHT30;43448;52.264;20.644;2024-03-08T11:00:02;24.79;27.66
57624;SHT30;43448;52.264;20.644;2024-03-08T11:10:02;24.81;27.64
57624;SHT30;43448;52.264;20.644;2024-03-08T11:20:00;24.91;27.43
57624;SHT30;43448;52.264;20.644;2024-03-08T11:30:02;25.00;27.32
57624;SHT30;43448;52.264;20.644;2024-03-08T11:40:01;25.06;27.19
57624;SHT30;43448;52.264;20.644;2024-03-08T11:50:00;25.10;27.18
57624;SHT30;43448;52.264;20.644;2024-03-08T12:00:01;25.13;27.20
57624;SHT30;43448;52.264;20.644;2024-03-08T12:10:17;25.11;27.18
57624;SHT30;43448;52.264;20.644;2024-03-08T12:20:11;25.10;27.16
57624;SHT30;43448;52.264;20.644;2024-03-08T12:30:15;25.10;27.35
57624;SHT30;43448;52.264;20.644;2024-03-08T12:40:00;25.11;27.20
57624;SHT30;43448;52.264;20.644;2024-03-08T12:50:00;25.11;27.18
57624;SHT30;43448;52.264;20.644;2024-03-08T13:00:01;25.14;27.01
57624;SHT30;43448;52.264;20.644;2024-03-08T13:10:00;25.14;27.09
57624;SHT30;43448;52.264;20.644;2024-03-08T13:20:00;25.15;27.10
57624;SHT30;43448;52.264;20.644;2024-03-08T13:30:00;25.18;27.20
57624;SHT30;43448;52.264;20.644;2024-03-08T13:40:00;25.18;27.01
57624;SHT30;43448;52.264;20.644;2024-03-08T13:50:00;25.22;27.32
57624;SHT30;43448;52.264;20.644;2024-03-08T14:00:01;25.22;27.21
57624;SHT30;43448;52.264;20.644;2024-03-08T14:10:00;25.21;27.27
57624;SHT30;43448;52.264;20.644;2024-03-08T14:20:00;25.24;27.30
57624;SHT30;43448;52.264;20.644;2024-03-08T14:30:00;25.25;27.40
57624;SHT30;43448;52.264;20.644;2024-03-08T14:40:00;25.21;27.39
57624;SHT30;43448;52.264;20.644;2024-03-08T14:50:00;25.17;27.33
57624;SHT30;43448;52.264;20.644;2024-03-08T15:00:01;25.18;27.31
57624;SHT30;43448;52.264;20.644;2024-03-08T15:10:00;25.14;27.06
57624;SHT30;43448;52.264;20.644;2024-03-08T15:20:00;25.14;27.06
57624;SHT30;43448;52.264;20.644;2024-03-08T15:30:01;25.13;27.07
57624;SHT30;43448;52.264;20.644;2024-03-08T15:40:00;25.10;27.32
57624;SHT30;43448;52.264;20.644;2024-03-08T15:50:00;25.04;27.68
57624;SHT30;43448;52.264;20.644;2024-03-08T16:00:01;24.98;27.69
57624;SHT30;43448;52.264;20.644;2024-03-08T16:10:00;24.93;27.91
57624;SHT30;43448;52.264;20.644;2024-03-08T16:20:00;24.88;28.27
57624;SHT30;43448;52.264;20.644;2024-03-08T16:30:00;24.83;28.25
57624;SHT30;43448;52.264;20.644;2024-03-08T16:40:00;24.80;28.39
57624;SHT30;43448;52.264;20.644;2024-03-08T16:50:00;24.77;28.56
57624;SHT30;43448;52.264;20.644;2024-03-08T17:00:00;24.71;28.86
57624;SHT30;43448;52.264;20.644;2024-03-08T17:10:01;24.76;29.18
57624;SHT30;43448;52.264;20.644;2024-03-08T17:20:00;24.80;29.24
57624;SHT30;43448;52.264;20.644;2024-03-08T17:30:00;24.83;29.12
57624;SHT30;43448;52.264;20.644;2024-03-08T17:40:00;24.81;29.09
57624;SHT30;43448;52.264;20.644;2024-03-08T17:50:00;24.81;29.21
57624;SHT30;43448;52.264;20.644;2024-03-08T18:00:00;24.77;30.03
57624;SHT30;43448;52.264;20.644;2024-03-08T18:10:00;24.77;29.99
57624;SHT30;43448;52.264;20.644;2024-03-08T18:20:00;24.81;30.15
57624;SHT30;43448;52.264;20.644;2024-03-08T18:30:00;24.80;29.96
57624;SHT30;43448;52.264;20.644;2024-03-08T18:40:00;24.81;29.80
57624;SHT30;43448;52.264;20.644;2024-03-08T18:50:01;24.79;29.70
57624;SHT30;43448;52.264;20.644;2024-03-08T19:00:00;24.76;29.67
57624;SHT30;43448;52.264;20.644;2024-03-08T19:10:00;24.71;29.54
57624;SHT30;43448;52.264;20.644;2024-03-08T19:20:00;24.64;29.56
57624;SHT30;43448;52.264;20.644;2024-03-08T19:30:00;24.63;29.47
57624;SHT30;43448;52.264;20.644;2024-03-08T19:40:00;24.59;29.40
57624;SHT30;43448;52.264;20.644;2024-03-08T19:50:00;24.56;29.57
57624;SHT30;43448;52.264;20.644;2024-03-08T20:00:00;24.52;30.85
57624;SHT30;43448;52.264;20.644;2024-03-08T20:10:00;24.53;31.22
57624;SHT30;43448;52.264;20.644;2024-03-08T20:20:01;24.55;31.04
57624;SHT30;43448;52.264;20.644;2024-03-08T20:30:00;24.52;30.77
57624;SHT30;43448;52.264;20.644;2024-03-08T20:40:00;24.50;30.59
57624;SHT30;43448;52.264;20.644;2024-03-08T20:50:01;24.48;30.36
57624;SHT30;43448;52.264;20.644;2024-03-08T21:00:00;24.46;30.20
57624;SHT30;43448;52.264;20.644;2024-03-08T21:10:00;24.40;30.05
57624;SHT30;43448;52.264;20.644;2024-03-08T21:20:01;24.36;29.89
57624;SHT30;43448;52.264;20.644;2024-03-08T21:30:00;24.36;29.78
57624;SHT30;43448;52.264;20.644;2024-03-08T21:40:00;24.32;29.64
57624;SHT30;43448;52.264;20.644;2024-03-08T21:50:00;24.32;29.49
57624;SHT30;43448;52.264;20.644;2024-03-08T22:00:00;24.30;29.35
57624;SHT30;43448;52.264;20.644;2024-03-08T22:10:00;24.26;29.28
57624;SHT30;43448;52.264;20.644;2024-03-08T22:20:00;24.25;29.16
57624;SHT30;43448;52.264;20.644;2024-03-08T22:30:01;24.23;29.01
57624;SHT30;43448;52.264;20.644;2024-03-08T22:40:00;24.22;28.90
57624;SHT30;43448;52.264;20.644;2024-03-08T22:50:00;24.20;28.82
57624;SHT30;43448;52.264;20.644;2024-03-08T23:00:00;24.11;29.81
57624;SHT30;43448;52.264;20.644;2024-03-08T23:10:01;24.22;29.78
57624;SHT30;43448;52.264;20.644;2024-03-08T23:20:00;24.25;29.72
57624;SHT30;43448;52.264;20.644;2024-03-08T23:30:00;24.25;29.74
57624;SHT30;43448;52.264;20.644;2024-03-08T23:40:00;24.30;29.44
57624;SHT30;43448;52.264;20.644;2024-03-08T23:50:00;24.32;29.27
